KAVL

Asheville Regional Airport

Asheville, North Carolina, USA
METAR KAVL 170320Z AUTO 14003KT 7SM -RA BKN003 OVC075 17/17 A3018 RMK AO2 P0001 T01720167
Observed Flight Rules
Oct-17 @ 03:20 UTC (24 minutes ago) Instrument Flight Rules
Wind Visibility Clouds Conditions
140° at 3 knots 7 miles
  • Broken at 300' AGL
  • Overcast at 7,500' AGL
  • Light Rain
Temperatures Readings Precipitation
Current 17°C / 63°F
Dewpoint 17°C / 63°F
Humidity 100%
Altimeter 30.18" Hg
Pressure 1022 hPa
Elevation 670
Current Rain 0.01
METAR KAVL 170320Z AUTO 14003KT 7SM -RA BKN003 OVC075 17/17 A3018 RMK AO2 P0001 T01720167
Observed Flight Rules
Oct-17 @ 03:20 UTC
(24 minutes ago)
LIFR
Wind Visibility
140° at 3 knots 7 miles
Clouds
  • Broken at 300' AGL
  • Overcast at 7,500' AGL
Conditions
  • Light Rain
Temperature Dewpoint
17°C / 63°F 17°C / 63°F
Humidity Altimeter Pressure
100% 30.18" Hg 1022 hPa
Current Rain
0.01